sensor_id;sensor_type;location;lat;lon;timestamp;P1;durP1;ratioP1;P2;durP2;ratioP2
50547;SDS011;38013;48.810;8.818;2022-10-31T00:00:50;7.07;;;3.20;;
50547;SDS011;38013;48.810;8.818;2022-10-31T00:03:16;9.80;;;4.03;;
50547;SDS011;38013;48.810;8.818;2022-10-31T00:05:43;6.65;;;2.90;;
50547;SDS011;38013;48.810;8.818;2022-10-31T00:08:11;7.93;;;2.90;;
50547;SDS011;38013;48.810;8.818;2022-10-31T00:10:37;8.73;;;3.22;;
50547;SDS011;38013;48.810;8.818;2022-10-31T00:13:04;8.48;;;2.38;;
50547;SDS011;38013;48.810;8.818;2022-10-31T00:15:32;6.32;;;2.50;;
50547;SDS011;38013;48.810;8.818;2022-10-31T00:18:02;9.68;;;2.92;;
50547;SDS011;38013;48.810;8.818;2022-10-31T00:20:29;9.07;;;2.72;;
50547;SDS011;38013;48.810;8.818;2022-10-31T00:22:59;7.70;;;2.55;;
50547;SDS011;38013;48.810;8.818;2022-10-31T00:25:26;6.90;;;2.72;;
50547;SDS011;38013;48.810;8.818;2022-10-31T00:27:53;6.63;;;2.20;;
50547;SDS011;38013;48.810;8.818;2022-10-31T00:30:20;11.13;;;2.75;;
50547;SDS011;38013;48.810;8.818;2022-10-31T00:32:45;5.97;;;2.45;;
50547;SDS011;38013;48.810;8.818;2022-10-31T00:35:11;8.65;;;2.95;;
50547;SDS011;38013;48.810;8.818;2022-10-31T00:37:37;8.80;;;2.85;;
50547;SDS011;38013;48.810;8.818;2022-10-31T00:40:03;9.18;;;3.70;;
50547;SDS011;38013;48.810;8.818;2022-10-31T00:42:30;7.45;;;3.25;;
50547;SDS011;38013;48.810;8.818;2022-10-31T00:44:57;7.68;;;2.97;;
50547;SDS011;38013;48.810;8.818;2022-10-31T00:47:22;5.93;;;3.03;;
50547;SDS011;38013;48.810;8.818;2022-10-31T00:49:48;7.07;;;2.90;;
50547;SDS011;38013;48.810;8.818;2022-10-31T00:52:14;6.97;;;2.60;;
50547;SDS011;38013;48.810;8.818;2022-10-31T00:54:41;8.85;;;2.75;;
50547;SDS011;38013;48.810;8.818;2022-10-31T00:57:07;9.48;;;2.72;;
50547;SDS011;38013;48.810;8.818;2022-10-31T00:59:33;9.70;;;3.00;;
50547;SDS011;38013;48.810;8.818;2022-10-31T01:01:58;8.10;;;2.50;;
50547;SDS011;38013;48.810;8.818;2022-10-31T01:04:24;13.55;;;2.97;;
50547;SDS011;38013;48.810;8.818;2022-10-31T01:06:50;4.72;;;2.38;;
50547;SDS011;38013;48.810;8.818;2022-10-31T01:09:16;6.47;;;2.35;;
50547;SDS011;38013;48.810;8.818;2022-10-31T01:11:42;12.80;;;3.40;;
50547;SDS011;38013;48.810;8.818;2022-10-31T01:14:08;7.38;;;2.85;;
50547;SDS011;38013;48.810;8.818;2022-10-31T01:16:34;7.25;;;3.10;;
50547;SDS011;38013;48.810;8.818;2022-10-31T01:19:00;8.63;;;2.90;;
50547;SDS011;38013;48.810;8.818;2022-10-31T01:21:27;4.82;;;2.38;;
50547;SDS011;38013;48.810;8.818;2022-10-31T01:23:57;7.47;;;2.72;;
50547;SDS011;38013;48.810;8.818;2022-10-31T01:26:24;8.82;;;3.28;;
50547;SDS011;38013;48.810;8.818;2022-10-31T01:28:57;8.10;;;2.55;;
50547;SDS011;38013;48.810;8.818;2022-10-31T01:31:30;7.75;;;3.28;;
50547;SDS011;38013;48.810;8.818;2022-10-31T01:34:02;14.25;;;2.83;;
50547;SDS011;38013;48.810;8.818;2022-10-31T01:36:30;6.70;;;2.35;;
50547;SDS011;38013;48.810;8.818;2022-10-31T01:38:59;11.00;;;2.65;;
50547;SDS011;38013;48.810;8.818;2022-10-31T01:41:32;6.45;;;2.58;;
50547;SDS011;38013;48.810;8.818;2022-10-31T01:44:43;6.82;;;2.72;;
50547;SDS011;38013;48.810;8.818;2022-10-31T01:46:50;5.80;;;2.25;;
50547;SDS011;38013;48.810;8.818;2022-10-31T01:55:06;8.32;;;2.25;;
50547;SDS011;38013;48.810;8.818;2022-10-31T01:57:40;10.02;;;2.60;;
50547;SDS011;38013;48.810;8.818;2022-10-31T02:00:10;12.60;;;2.80;;
50547;SDS011;38013;48.810;8.818;2022-10-31T02:02:40;6.78;;;2.70;;
50547;SDS011;38013;48.810;8.818;2022-10-31T02:05:08;9.25;;;2.72;;
50547;SDS011;38013;48.810;8.818;2022-10-31T02:07:39;7.20;;;2.25;;
50547;SDS011;38013;48.810;8.818;2022-10-31T02:10:18;8.23;;;2.22;;
50547;SDS011;38013;48.810;8.818;2022-10-31T02:12:47;5.50;;;2.47;;
50547;SDS011;38013;48.810;8.818;2022-10-31T02:17:43;6.55;;;2.20;;
50547;SDS011;38013;48.810;8.818;2022-10-31T02:26:17;5.57;;;2.08;;
50547;SDS011;38013;48.810;8.818;2022-10-31T02:32:30;4.63;;;2.00;;
50547;SDS011;38013;48.810;8.818;2022-10-31T02:38:08;6.68;;;2.33;;
50547;SDS011;38013;48.810;8.818;2022-10-31T02:40:53;5.88;;;1.75;;
50547;SDS011;38013;48.810;8.818;2022-10-31T02:43:47;5.40;;;2.22;;
50547;SDS011;38013;48.810;8.818;2022-10-31T02:46:54;12.88;;;2.88;;
50547;SDS011;38013;48.810;8.818;2022-10-31T02:52:23;6.10;;;2.45;;
50547;SDS011;38013;48.810;8.818;2022-10-31T02:57:20;8.23;;;1.70;;
50547;SDS011;38013;48.810;8.818;2022-10-31T03:00:02;3.83;;;1.70;;
50547;SDS011;38013;48.810;8.818;2022-10-31T03:05:14;7.22;;;2.45;;
50547;SDS011;38013;48.810;8.818;2022-10-31T03:10:58;5.25;;;2.05;;
50547;SDS011;38013;48.810;8.818;2022-10-31T03:16:15;12.13;;;2.28;;
50547;SDS011;38013;48.810;8.818;2022-10-31T03:19:01;7.15;;;2.75;;
50547;SDS011;38013;48.810;8.818;2022-10-31T03:21:42;4.75;;;2.55;;
50547;SDS011;38013;48.810;8.818;2022-10-31T03:24:11;10.27;;;2.65;;
50547;SDS011;38013;48.810;8.818;2022-10-31T03:26:42;4.70;;;2.10;;
50547;SDS011;38013;48.810;8.818;2022-10-31T03:29:16;5.65;;;2.13;;
50547;SDS011;38013;48.810;8.818;2022-10-31T03:31:49;6.20;;;2.30;;
50547;SDS011;38013;48.810;8.818;2022-10-31T03:34:21;7.40;;;2.28;;
50547;SDS011;38013;48.810;8.818;2022-10-31T03:36:49;7.18;;;2.10;;
50547;SDS011;38013;48.810;8.818;2022-10-31T03:39:18;5.70;;;2.20;;
50547;SDS011;38013;48.810;8.818;2022-10-31T03:41:51;5.60;;;2.35;;
50547;SDS011;38013;48.810;8.818;2022-10-31T03:44:30;12.30;;;2.47;;
50547;SDS011;38013;48.810;8.818;2022-10-31T03:47:01;5.20;;;2.00;;
50547;SDS011;38013;48.810;8.818;2022-10-31T03:49:29;5.82;;;1.90;;
50547;SDS011;38013;48.810;8.818;2022-10-31T03:51:58;4.88;;;1.70;;
50547;SDS011;38013;48.810;8.818;2022-10-31T03:54:46;7.57;;;1.90;;
50547;SDS011;38013;48.810;8.818;2022-10-31T04:00:28;7.78;;;1.80;;
50547;SDS011;38013;48.810;8.818;2022-10-31T04:03:01;7.35;;;2.13;;
50547;SDS011;38013;48.810;8.818;2022-10-31T04:05:36;4.20;;;1.75;;
50547;SDS011;38013;48.810;8.818;2022-10-31T04:08:04;6.93;;;2.25;;
50547;SDS011;38013;48.810;8.818;2022-10-31T04:10:36;6.78;;;1.98;;
50547;SDS011;38013;48.810;8.818;2022-10-31T04:13:08;5.65;;;2.35;;
50547;SDS011;38013;48.810;8.818;2022-10-31T04:15:48;8.35;;;2.85;;
50547;SDS011;38013;48.810;8.818;2022-10-31T04:18:17;6.10;;;2.88;;
50547;SDS011;38013;48.810;8.818;2022-10-31T04:20:43;8.25;;;3.50;;
50547;SDS011;38013;48.810;8.818;2022-10-31T04:23:15;9.80;;;4.05;;
50547;SDS011;38013;48.810;8.818;2022-10-31T04:25:50;6.95;;;3.33;;
50547;SDS011;38013;48.810;8.818;2022-10-31T04:28:17;8.30;;;3.60;;
50547;SDS011;38013;48.810;8.818;2022-10-31T04:30:43;6.85;;;3.15;;
50547;SDS011;38013;48.810;8.818;2022-10-31T04:33:09;8.15;;;3.28;;
50547;SDS011;38013;48.810;8.818;2022-10-31T04:35:36;8.65;;;2.92;;
50547;SDS011;38013;48.810;8.818;2022-10-31T04:38:02;11.25;;;3.25;;
50547;SDS011;38013;48.810;8.818;2022-10-31T04:40:28;9.43;;;3.00;;
50547;SDS011;38013;48.810;8.818;2022-10-31T04:43:00;8.07;;;3.40;;
50547;SDS011;38013;48.810;8.818;2022-10-31T04:45:28;9.15;;;2.90;;
50547;SDS011;38013;48.810;8.818;2022-10-31T04:47:54;8.82;;;3.05;;
50547;SDS011;38013;48.810;8.818;2022-10-31T04:50:21;7.45;;;2.85;;
50547;SDS011;38013;48.810;8.818;2022-10-31T04:52:47;5.22;;;2.60;;
50547;SDS011;38013;48.810;8.818;2022-10-31T04:55:16;8.90;;;2.10;;
50547;SDS011;38013;48.810;8.818;2022-10-31T04:58:02;8.32;;;2.63;;
50547;SDS011;38013;48.810;8.818;2022-10-31T05:00:28;8.05;;;2.83;;
50547;SDS011;38013;48.810;8.818;2022-10-31T05:02:55;7.72;;;2.95;;
50547;SDS011;38013;48.810;8.818;2022-10-31T05:05:26;7.07;;;2.58;;
50547;SDS011;38013;48.810;8.818;2022-10-31T05:07:54;6.60;;;2.65;;
50547;SDS011;38013;48.810;8.818;2022-10-31T05:10:25;7.30;;;2.20;;
50547;SDS011;38013;48.810;8.818;2022-10-31T05:12:57;7.47;;;2.75;;
50547;SDS011;38013;48.810;8.818;2022-10-31T05:15:43;4.35;;;1.88;;
50547;SDS011;38013;48.810;8.818;2022-10-31T05:18:28;6.75;;;2.42;;
50547;SDS011;38013;48.810;8.818;2022-10-31T05:21:13;5.43;;;1.95;;
50547;SDS011;38013;48.810;8.818;2022-10-31T05:23:49;4.40;;;1.70;;
50547;SDS011;38013;48.810;8.818;2022-10-31T05:26:16;7.82;;;1.80;;
50547;SDS011;38013;48.810;8.818;2022-10-31T05:28:43;7.85;;;2.00;;
50547;SDS011;38013;48.810;8.818;2022-10-31T05:31:10;4.88;;;2.40;;
50547;SDS011;38013;48.810;8.818;2022-10-31T05:33:36;6.50;;;2.00;;
50547;SDS011;38013;48.810;8.818;2022-10-31T05:36:20;5.25;;;2.03;;
50547;SDS011;38013;48.810;8.818;2022-10-31T05:38:56;4.70;;;2.55;;
50547;SDS011;38013;48.810;8.818;2022-10-31T05:41:24;7.03;;;2.67;;
50547;SDS011;38013;48.810;8.818;2022-10-31T05:43:52;5.10;;;2.15;;
50547;SDS011;38013;48.810;8.818;2022-10-31T05:46:22;5.55;;;1.85;;
50547;SDS011;38013;48.810;8.818;2022-10-31T05:49:07;6.72;;;2.05;;
50547;SDS011;38013;48.810;8.818;2022-10-31T05:51:51;4.28;;;1.90;;
50547;SDS011;38013;48.810;8.818;2022-10-31T05:54:19;5.63;;;1.63;;
50547;SDS011;38013;48.810;8.818;2022-10-31T05:56:45;7.05;;;2.10;;
50547;SDS011;38013;48.810;8.818;2022-10-31T05:59:11;7.75;;;2.00;;
50547;SDS011;38013;48.810;8.818;2022-10-31T06:01:38;6.55;;;2.17;;
50547;SDS011;38013;48.810;8.818;2022-10-31T06:04:11;6.93;;;2.70;;
50547;SDS011;38013;48.810;8.818;2022-10-31T06:06:37;7.47;;;2.42;;
50547;SDS011;38013;48.810;8.818;2022-10-31T06:09:03;4.97;;;2.25;;
50547;SDS011;38013;48.810;8.818;2022-10-31T06:11:32;6.38;;;2.55;;
50547;SDS011;38013;48.810;8.818;2022-10-31T06:14:01;5.95;;;2.63;;
50547;SDS011;38013;48.810;8.818;2022-10-31T06:16:34;5.20;;;1.88;;
50547;SDS011;38013;48.810;8.818;2022-10-31T06:19:15;3.90;;;2.00;;
50547;SDS011;38013;48.810;8.818;2022-10-31T06:21:41;6.38;;;2.10;;
50547;SDS011;38013;48.810;8.818;2022-10-31T06:24:07;5.78;;;2.70;;
50547;SDS011;38013;48.810;8.818;2022-10-31T06:27:06;5.72;;;2.17;;
50547;SDS011;38013;48.810;8.818;2022-10-31T06:29:32;4.72;;;1.98;;
50547;SDS011;38013;48.810;8.818;2022-10-31T06:34:30;4.65;;;1.85;;
50547;SDS011;38013;48.810;8.818;2022-10-31T06:36:56;5.18;;;1.88;;
50547;SDS011;38013;48.810;8.818;2022-10-31T06:39:24;4.82;;;2.20;;
50547;SDS011;38013;48.810;8.818;2022-10-31T06:41:51;4.18;;;2.08;;
50547;SDS011;38013;48.810;8.818;2022-10-31T06:44:19;7.70;;;1.88;;
50547;SDS011;38013;48.810;8.818;2022-10-31T06:46:54;7.55;;;2.10;;
50547;SDS011;38013;48.810;8.818;2022-10-31T06:49:40;6.75;;;1.80;;
50547;SDS011;38013;48.810;8.818;2022-10-31T06:52:13;7.88;;;2.08;;
50547;SDS011;38013;48.810;8.818;2022-10-31T06:54:39;6.68;;;2.10;;
50547;SDS011;38013;48.810;8.818;2022-10-31T06:57:05;7.72;;;2.13;;
50547;SDS011;38013;48.810;8.818;2022-10-31T06:59:31;4.22;;;2.05;;
50547;SDS011;38013;48.810;8.818;2022-10-31T07:02:10;7.15;;;2.40;;
50547;SDS011;38013;48.810;8.818;2022-10-31T07:04:38;7.00;;;2.00;;
50547;SDS011;38013;48.810;8.818;2022-10-31T07:07:05;7.32;;;2.53;;
50547;SDS011;38013;48.810;8.818;2022-10-31T07:09:33;4.70;;;2.50;;
50547;SDS011;38013;48.810;8.818;2022-10-31T07:12:01;6.28;;;2.15;;
50547;SDS011;38013;48.810;8.818;2022-10-31T07:14:29;9.73;;;2.45;;
50547;SDS011;38013;48.810;8.818;2022-10-31T07:16:55;4.28;;;2.35;;
50547;SDS011;38013;48.810;8.818;2022-10-31T07:19:27;9.07;;;2.42;;
50547;SDS011;38013;48.810;8.818;2022-10-31T07:21:53;10.32;;;2.00;;
50547;SDS011;38013;48.810;8.818;2022-10-31T07:24:18;7.32;;;2.22;;
50547;SDS011;38013;48.810;8.818;2022-10-31T07:26:56;7.25;;;2.38;;
50547;SDS011;38013;48.810;8.818;2022-10-31T07:29:23;7.20;;;2.53;;
50547;SDS011;38013;48.810;8.818;2022-10-31T07:31:49;7.80;;;2.42;;
50547;SDS011;38013;48.810;8.818;2022-10-31T07:34:20;7.40;;;2.42;;
50547;SDS011;38013;48.810;8.818;2022-10-31T07:37:05;11.23;;;2.85;;
50547;SDS011;38013;48.810;8.818;2022-10-31T07:39:31;10.70;;;2.85;;
50547;SDS011;38013;48.810;8.818;2022-10-31T07:41:58;8.43;;;2.60;;
50547;SDS011;38013;48.810;8.818;2022-10-31T07:44:24;6.80;;;2.72;;
50547;SDS011;38013;48.810;8.818;2022-10-31T07:47:28;5.63;;;2.35;;
50547;SDS011;38013;48.810;8.818;2022-10-31T07:50:07;7.90;;;2.70;;
50547;SDS011;38013;48.810;8.818;2022-10-31T07:53:04;8.35;;;2.55;;
50547;SDS011;38013;48.810;8.818;2022-10-31T07:55:43;7.80;;;2.63;;
50547;SDS011;38013;48.810;8.818;2022-10-31T07:58:14;8.77;;;2.45;;
50547;SDS011;38013;48.810;8.818;2022-10-31T08:00:43;11.20;;;2.90;;
50547;SDS011;38013;48.810;8.818;2022-10-31T08:03:15;10.38;;;2.70;;
50547;SDS011;38013;48.810;8.818;2022-10-31T08:06:02;6.43;;;2.10;;
50547;SDS011;38013;48.810;8.818;2022-10-31T08:08:51;6.45;;;2.30;;
50547;SDS011;38013;48.810;8.818;2022-10-31T08:11:17;8.45;;;2.30;;
50547;SDS011;38013;48.810;8.818;2022-10-31T08:13:43;7.25;;;2.22;;
50547;SDS011;38013;48.810;8.818;2022-10-31T08:16:12;5.45;;;2.42;;
50547;SDS011;38013;48.810;8.818;2022-10-31T08:18:48;7.45;;;2.53;;
50547;SDS011;38013;48.810;8.818;2022-10-31T08:21:14;7.28;;;2.50;;
50547;SDS011;38013;48.810;8.818;2022-10-31T08:23:41;6.60;;;2.65;;
50547;SDS011;38013;48.810;8.818;2022-10-31T08:26:07;6.68;;;2.40;;
50547;SDS011;38013;48.810;8.818;2022-10-31T08:28:33;7.15;;;2.28;;
50547;SDS011;38013;48.810;8.818;2022-10-31T08:30:59;7.63;;;2.38;;
50547;SDS011;38013;48.810;8.818;2022-10-31T08:33:40;8.18;;;2.67;;
50547;SDS011;38013;48.810;8.818;2022-10-31T08:36:17;9.32;;;2.80;;
50547;SDS011;38013;48.810;8.818;2022-10-31T08:38:59;7.75;;;2.65;;
50547;SDS011;38013;48.810;8.818;2022-10-31T08:41:26;7.05;;;2.58;;
50547;SDS011;38013;48.810;8.818;2022-10-31T08:43:52;7.10;;;2.78;;
50547;SDS011;38013;48.810;8.818;2022-10-31T08:46:19;8.30;;;2.63;;
50547;SDS011;38013;48.810;8.818;2022-10-31T08:48:49;7.60;;;2.65;;
50547;SDS011;38013;48.810;8.818;2022-10-31T08:51:17;6.43;;;2.45;;
50547;SDS011;38013;48.810;8.818;2022-10-31T08:53:43;6.38;;;2.72;;
50547;SDS011;38013;48.810;8.818;2022-10-31T08:56:38;9.70;;;2.92;;
50547;SDS011;38013;48.810;8.818;2022-10-31T08:59:16;8.13;;;2.83;;
50547;SDS011;38013;48.810;8.818;2022-10-31T09:02:00;6.70;;;2.50;;
50547;SDS011;38013;48.810;8.818;2022-10-31T09:04:28;5.65;;;2.45;;
50547;SDS011;38013;48.810;8.818;2022-10-31T09:06:54;8.55;;;2.80;;
50547;SDS011;38013;48.810;8.818;2022-10-31T09:09:20;6.85;;;2.90;;
50547;SDS011;38013;48.810;8.818;2022-10-31T09:11:46;8.52;;;3.00;;
50547;SDS011;38013;48.810;8.818;2022-10-31T09:14:31;8.88;;;2.83;;
50547;SDS011;38013;48.810;8.818;2022-10-31T09:17:15;7.22;;;2.80;;
50547;SDS011;38013;48.810;8.818;2022-10-31T09:20:04;8.00;;;3.03;;
50547;SDS011;38013;48.810;8.818;2022-10-31T09:22:33;8.27;;;2.92;;
50547;SDS011;38013;48.810;8.818;2022-10-31T09:24:59;7.57;;;2.60;;
50547;SDS011;38013;48.810;8.818;2022-10-31T09:27:25;12.90;;;2.78;;
50547;SDS011;38013;48.810;8.818;2022-10-31T09:29:54;9.43;;;2.97;;
50547;SDS011;38013;48.810;8.818;2022-10-31T09:32:20;7.72;;;2.83;;
50547;SDS011;38013;48.810;8.818;2022-10-31T09:34:46;7.40;;;2.65;;
50547;SDS011;38013;48.810;8.818;2022-10-31T09:37:15;6.07;;;2.53;;
50547;SDS011;38013;48.810;8.818;2022-10-31T09:39:41;8.93;;;3.30;;
50547;SDS011;38013;48.810;8.818;2022-10-31T09:45:11;7.30;;;2.67;;
50547;SDS011;38013;48.810;8.818;2022-10-31T09:51:01;6.93;;;2.80;;
50547;SDS011;38013;48.810;8.818;2022-10-31T09:54:00;8.48;;;2.75;;
50547;SDS011;38013;48.810;8.818;2022-10-31T09:56:58;8.73;;;2.75;;
50547;SDS011;38013;48.810;8.818;2022-10-31T10:07:25;6.50;;;2.50;;
50547;SDS011;38013;48.810;8.818;2022-10-31T10:13:38;8.73;;;2.60;;
50547;SDS011;38013;48.810;8.818;2022-10-31T10:20:18;7.28;;;2.60;;
50547;SDS011;38013;48.810;8.818;2022-10-31T10:22:52;7.22;;;2.92;;
50547;SDS011;38013;48.810;8.818;2022-10-31T10:25:40;7.80;;;2.67;;
50547;SDS011;38013;48.810;8.818;2022-10-31T10:28:17;11.35;;;3.00;;
50547;SDS011;38013;48.810;8.818;2022-10-31T10:30:57;5.57;;;2.40;;
50547;SDS011;38013;48.810;8.818;2022-10-31T10:33:30;6.60;;;2.60;;
50547;SDS011;38013;48.810;8.818;2022-10-31T10:36:26;7.00;;;2.58;;
50547;SDS011;38013;48.810;8.818;2022-10-31T10:39:11;10.63;;;2.60;;
50547;SDS011;38013;48.810;8.818;2022-10-31T10:41:49;9.95;;;2.60;;
50547;SDS011;38013;48.810;8.818;2022-10-31T10:44:38;6.82;;;2.63;;
50547;SDS011;38013;48.810;8.818;2022-10-31T10:47:28;6.10;;;2.03;;
50547;SDS011;38013;48.810;8.818;2022-10-31T10:50:17;7.55;;;2.53;;
50547;SDS011;38013;48.810;8.818;2022-10-31T10:55:39;6.00;;;2.42;;
50547;SDS011;38013;48.810;8.818;2022-10-31T10:58:16;8.15;;;2.90;;
50547;SDS011;38013;48.810;8.818;2022-10-31T11:00:42;9.65;;;2.97;;
50547;SDS011;38013;48.810;8.818;2022-10-31T11:03:11;7.07;;;2.75;;
50547;SDS011;38013;48.810;8.818;2022-10-31T11:05:44;10.35;;;3.00;;
50547;SDS011;38013;48.810;8.818;2022-10-31T11:08:24;11.20;;;3.50;;
50547;SDS011;38013;48.810;8.818;2022-10-31T11:10:59;13.82;;;3.08;;
50547;SDS011;38013;48.810;8.818;2022-10-31T11:13:39;11.98;;;2.88;;
50547;SDS011;38013;48.810;8.818;2022-10-31T11:16:08;10.95;;;2.95;;
50547;SDS011;38013;48.810;8.818;2022-10-31T11:18:38;8.80;;;2.60;;
50547;SDS011;38013;48.810;8.818;2022-10-31T11:21:27;12.43;;;2.92;;
50547;SDS011;38013;48.810;8.818;2022-10-31T11:24:02;10.80;;;2.90;;
50547;SDS011;38013;48.810;8.818;2022-10-31T11:26:33;9.98;;;2.47;;
50547;SDS011;38013;48.810;8.818;2022-10-31T11:29:00;10.80;;;2.58;;
50547;SDS011;38013;48.810;8.818;2022-10-31T11:31:28;7.07;;;2.30;;
50547;SDS011;38013;48.810;8.818;2022-10-31T11:33:58;7.53;;;2.53;;
50547;SDS011;38013;48.810;8.818;2022-10-31T11:36:32;12.18;;;2.85;;
50547;SDS011;38013;48.810;8.818;2022-10-31T11:39:03;8.38;;;2.70;;
50547;SDS011;38013;48.810;8.818;2022-10-31T11:41:35;9.75;;;3.10;;
50547;SDS011;38013;48.810;8.818;2022-10-31T11:44:19;9.15;;;2.72;;
50547;SDS011;38013;48.810;8.818;2022-10-31T11:46:51;11.02;;;3.47;;
50547;SDS011;38013;48.810;8.818;2022-10-31T11:49:29;13.13;;;2.85;;
50547;SDS011;38013;48.810;8.818;2022-10-31T11:54:36;12.27;;;3.83;;
50547;SDS011;38013;48.810;8.818;2022-10-31T11:57:49;11.20;;;4.07;;
50547;SDS011;38013;48.810;8.818;2022-10-31T12:00:21;8.50;;;4.00;;
50547;SDS011;38013;48.810;8.818;2022-10-31T12:06:00;17.15;;;4.10;;
50547;SDS011;38013;48.810;8.818;2022-10-31T12:08:34;7.93;;;3.50;;
50547;SDS011;38013;48.810;8.818;2022-10-31T12:17:08;9.52;;;3.10;;
50547;SDS011;38013;48.810;8.818;2022-10-31T12:22:53;14.07;;;3.30;;
50547;SDS011;38013;48.810;8.818;2022-10-31T12:25:42;10.40;;;3.15;;
50547;SDS011;38013;48.810;8.818;2022-10-31T12:37:19;11.00;;;2.97;;
50547;SDS011;38013;48.810;8.818;2022-10-31T12:45:52;7.75;;;2.90;;
50547;SDS011;38013;48.810;8.818;2022-10-31T12:51:41;9.30;;;3.35;;
50547;SDS011;38013;48.810;8.818;2022-10-31T12:57:42;7.93;;;3.00;;
50547;SDS011;38013;48.810;8.818;2022-10-31T13:00:18;10.65;;;3.03;;
50547;SDS011;38013;48.810;8.818;2022-10-31T13:02:49;15.50;;;3.95;;
50547;SDS011;38013;48.810;8.818;2022-10-31T13:05:28;9.63;;;3.28;;
50547;SDS011;38013;48.810;8.818;2022-10-31T13:08:15;12.00;;;3.45;;
50547;SDS011;38013;48.810;8.818;2022-10-31T13:13:44;9.25;;;3.45;;
50547;SDS011;38013;48.810;8.818;2022-10-31T13:16:22;14.07;;;4.00;;
50547;SDS011;38013;48.810;8.818;2022-10-31T13:21:42;10.93;;;3.42;;
50547;SDS011;38013;48.810;8.818;2022-10-31T13:24:23;14.02;;;3.30;;
50547;SDS011;38013;48.810;8.818;2022-10-31T13:27:17;8.85;;;2.97;;
50547;SDS011;38013;48.810;8.818;2022-10-31T13:29:55;9.82;;;3.30;;
50547;SDS011;38013;48.810;8.818;2022-10-31T13:32:39;11.63;;;3.22;;
50547;SDS011;38013;48.810;8.818;2022-10-31T13:35:14;10.90;;;3.30;;
50547;SDS011;38013;48.810;8.818;2022-10-31T13:38:11;12.07;;;3.50;;
50547;SDS011;38013;48.810;8.818;2022-10-31T13:40:56;9.93;;;2.70;;
50547;SDS011;38013;48.810;8.818;2022-10-31T13:44:10;9.55;;;3.33;;
50547;SDS011;38013;48.810;8.818;2022-10-31T13:46:26;11.07;;;3.20;;
50547;SDS011;38013;48.810;8.818;2022-10-31T13:49:18;8.35;;;3.17;;
50547;SDS011;38013;48.810;8.818;2022-10-31T13:54:42;9.73;;;3.22;;
50547;SDS011;38013;48.810;8.818;2022-10-31T13:57:51;9.15;;;2.72;;
50547;SDS011;38013;48.810;8.818;2022-10-31T14:02:46;12.70;;;3.65;;
50547;SDS011;38013;48.810;8.818;2022-10-31T14:05:21;10.70;;;3.13;;
50547;SDS011;38013;48.810;8.818;2022-10-31T14:07:53;10.00;;;3.33;;
50547;SDS011;38013;48.810;8.818;2022-10-31T14:10:28;11.27;;;3.55;;
50547;SDS011;38013;48.810;8.818;2022-10-31T14:13:17;11.38;;;3.60;;
50547;SDS011;38013;48.810;8.818;2022-10-31T14:15:56;7.75;;;3.50;;
50547;SDS011;38013;48.810;8.818;2022-10-31T14:18:32;14.52;;;3.65;;
50547;SDS011;38013;48.810;8.818;2022-10-31T14:21:13;13.13;;;3.70;;
50547;SDS011;38013;48.810;8.818;2022-10-31T14:26:52;15.13;;;4.07;;
50547;SDS011;38013;48.810;8.818;2022-10-31T14:31:53;9.60;;;3.10;;
50547;SDS011;38013;48.810;8.818;2022-10-31T14:34:27;9.73;;;3.75;;
50547;SDS011;38013;48.810;8.818;2022-10-31T14:37:22;9.98;;;3.80;;
50547;SDS011;38013;48.810;8.818;2022-10-31T14:49:21;7.63;;;3.45;;
50547;SDS011;38013;48.810;8.818;2022-10-31T14:52:23;9.35;;;3.38;;
50547;SDS011;38013;48.810;8.818;2022-10-31T14:54:53;13.68;;;3.45;;
50547;SDS011;38013;48.810;8.818;2022-10-31T14:57:32;13.60;;;3.15;;
50547;SDS011;38013;48.810;8.818;2022-10-31T15:00:04;11.23;;;3.45;;
50547;SDS011;38013;48.810;8.818;2022-10-31T15:02:36;11.63;;;3.90;;
50547;SDS011;38013;48.810;8.818;2022-10-31T15:05:31;13.02;;;3.88;;
50547;SDS011;38013;48.810;8.818;2022-10-31T15:08:00;10.23;;;3.15;;
50547;SDS011;38013;48.810;8.818;2022-10-31T15:13:20;15.25;;;3.80;;
50547;SDS011;38013;48.810;8.818;2022-10-31T15:15:47;12.03;;;3.40;;
50547;SDS011;38013;48.810;8.818;2022-10-31T15:20:45;8.23;;;2.80;;
50547;SDS011;38013;48.810;8.818;2022-10-31T15:23:15;11.75;;;3.47;;
50547;SDS011;38013;48.810;8.818;2022-10-31T15:25:46;13.00;;;3.13;;
50547;SDS011;38013;48.810;8.818;2022-10-31T15:28:13;10.63;;;3.65;;
50547;SDS011;38013;48.810;8.818;2022-10-31T15:30:50;10.23;;;3.20;;
50547;SDS011;38013;48.810;8.818;2022-10-31T15:33:23;10.77;;;2.92;;
50547;SDS011;38013;48.810;8.818;2022-10-31T15:35:56;11.32;;;3.38;;
50547;SDS011;38013;48.810;8.818;2022-10-31T15:38:26;7.28;;;2.78;;
50547;SDS011;38013;48.810;8.818;2022-10-31T15:40:55;9.20;;;3.22;;
50547;SDS011;38013;48.810;8.818;2022-10-31T15:43:44;8.18;;;2.78;;
50547;SDS011;38013;48.810;8.818;2022-10-31T15:46:11;10.75;;;3.50;;
50547;SDS011;38013;48.810;8.818;2022-10-31T15:48:37;12.20;;;3.53;;
50547;SDS011;38013;48.810;8.818;2022-10-31T15:51:05;14.55;;;3.90;;
50547;SDS011;38013;48.810;8.818;2022-10-31T15:53:41;10.93;;;3.70;;
50547;SDS011;38013;48.810;8.818;2022-10-31T15:56:19;12.88;;;4.05;;
50547;SDS011;38013;48.810;8.818;2022-10-31T15:58:49;10.35;;;3.38;;
50547;SDS011;38013;48.810;8.818;2022-10-31T16:01:31;11.32;;;3.75;;
50547;SDS011;38013;48.810;8.818;2022-10-31T16:06:30;11.13;;;3.85;;
50547;SDS011;38013;48.810;8.818;2022-10-31T16:08:58;12.50;;;3.70;;
50547;SDS011;38013;48.810;8.818;2022-10-31T16:11:28;13.82;;;4.18;;
50547;SDS011;38013;48.810;8.818;2022-10-31T16:16:41;18.70;;;4.78;;
50547;SDS011;38013;48.810;8.818;2022-10-31T16:19:24;10.43;;;4.22;;
50547;SDS011;38013;48.810;8.818;2022-10-31T16:22:11;8.60;;;3.47;;
50547;SDS011;38013;48.810;8.818;2022-10-31T16:24:49;8.38;;;3.38;;
50547;SDS011;38013;48.810;8.818;2022-10-31T16:27:32;14.70;;;4.20;;
50547;SDS011;38013;48.810;8.818;2022-10-31T16:30:00;7.97;;;4.03;;
50547;SDS011;38013;48.810;8.818;2022-10-31T16:37:57;11.30;;;4.47;;
50547;SDS011;38013;48.810;8.818;2022-10-31T16:40:23;10.57;;;3.33;;
50547;SDS011;38013;48.810;8.818;2022-10-31T16:42:49;14.38;;;3.38;;
50547;SDS011;38013;48.810;8.818;2022-10-31T16:45:20;15.20;;;3.80;;
50547;SDS011;38013;48.810;8.818;2022-10-31T16:47:51;11.30;;;3.00;;
50547;SDS011;38013;48.810;8.818;2022-10-31T16:50:22;10.10;;;4.10;;
50547;SDS011;38013;48.810;8.818;2022-10-31T16:52:51;11.18;;;4.00;;
50547;SDS011;38013;48.810;8.818;2022-10-31T16:55:18;12.30;;;3.42;;
50547;SDS011;38013;48.810;8.818;2022-10-31T16:57:46;11.18;;;3.13;;
50547;SDS011;38013;48.810;8.818;2022-10-31T17:00:19;7.63;;;3.70;;
50547;SDS011;38013;48.810;8.818;2022-10-31T17:02:48;13.25;;;4.07;;
50547;SDS011;38013;48.810;8.818;2022-10-31T17:05:17;12.70;;;4.03;;
50547;SDS011;38013;48.810;8.818;2022-10-31T17:07:44;9.95;;;3.92;;
50547;SDS011;38013;48.810;8.818;2022-10-31T17:10:10;12.13;;;4.40;;
50547;SDS011;38013;48.810;8.818;2022-10-31T17:12:39;11.85;;;4.65;;
50547;SDS011;38013;48.810;8.818;2022-10-31T17:17:46;15.32;;;4.50;;
50547;SDS011;38013;48.810;8.818;2022-10-31T17:20:25;12.27;;;5.85;;
50547;SDS011;38013;48.810;8.818;2022-10-31T17:22:56;10.43;;;4.43;;
50547;SDS011;38013;48.810;8.818;2022-10-31T17:25:24;10.43;;;4.57;;
50547;SDS011;38013;48.810;8.818;2022-10-31T17:27:52;9.15;;;4.25;;
50547;SDS011;38013;48.810;8.818;2022-10-31T17:30:18;10.38;;;4.05;;
50547;SDS011;38013;48.810;8.818;2022-10-31T17:32:46;10.13;;;4.18;;
50547;SDS011;38013;48.810;8.818;2022-10-31T17:35:13;11.18;;;4.35;;
50547;SDS011;38013;48.810;8.818;2022-10-31T17:37:40;11.93;;;4.45;;
50547;SDS011;38013;48.810;8.818;2022-10-31T17:40:08;8.98;;;4.38;;
50547;SDS011;38013;48.810;8.818;2022-10-31T17:42:38;10.32;;;4.32;;
50547;SDS011;38013;48.810;8.818;2022-10-31T17:45:05;12.65;;;4.60;;